sensor_id;sensor_type;location;lat;lon;timestamp;pressure;altitude;pressure_sealevel;temperature;humidity
12666;BME280;58531;59.050;17.416;2023-05-27T00:01:11;101925.16;;;3.97;100.00
12666;BME280;58531;59.050;17.416;2023-05-27T00:03:38;101927.47;;;3.98;100.00
12666;BME280;58531;59.050;17.416;2023-05-27T00:06:06;101928.19;;;3.95;100.00
12666;BME280;58531;59.050;17.416;2023-05-27T00:08:33;101928.81;;;3.89;100.00
12666;BME280;58531;59.050;17.416;2023-05-27T00:10:59;101928.75;;;3.82;100.00
12666;BME280;58531;59.050;17.416;2023-05-27T00:13:28;101926.00;;;3.75;100.00
12666;BME280;58531;59.050;17.416;2023-05-27T00:15:54;101933.13;;;3.71;100.00
12666;BME280;58531;59.050;17.416;2023-05-27T00:18:21;101935.25;;;3.62;100.00
12666;BME280;58531;59.050;17.416;2023-05-27T00:20:48;101924.25;;;3.56;100.00
12666;BME280;58531;59.050;17.416;2023-05-27T00:23:15;101935.19;;;3.58;100.00
12666;BME280;58531;59.050;17.416;2023-05-27T00:25:42;101928.06;;;3.62;100.00
12666;BME280;58531;59.050;17.416;2023-05-27T00:28:09;101929.25;;;3.65;100.00
12666;BME280;58531;59.050;17.416;2023-05-27T00:30:38;101930.78;;;3.66;100.00
12666;BME280;58531;59.050;17.416;2023-05-27T00:33:04;101937.88;;;3.62;100.00
12666;BME280;58531;59.050;17.416;2023-05-27T00:35:31;101932.59;;;3.62;100.00
12666;BME280;58531;59.050;17.416;2023-05-27T00:37:58;101938.72;;;3.66;100.00
12666;BME280;58531;59.050;17.416;2023-05-27T00:40:26;101939.53;;;3.70;100.00
12666;BME280;58531;59.050;17.416;2023-05-27T00:42:55;101944.44;;;3.71;100.00
12666;BME280;58531;59.050;17.416;2023-05-27T00:45:22;101944.44;;;3.71;100.00
12666;BME280;58531;59.050;17.416;2023-05-27T00:47:50;101956.53;;;3.72;100.00
12666;BME280;58531;59.050;17.416;2023-05-27T00:50:18;101949.38;;;3.73;100.00
12666;BME280;58531;59.050;17.416;2023-05-27T00:52:45;101954.66;;;3.73;100.00
12666;BME280;58531;59.050;17.416;2023-05-27T00:55:12;101948.97;;;3.71;100.00
12666;BME280;58531;59.050;17.416;2023-05-27T00:57:39;101955.38;;;3.70;100.00
12666;BME280;58531;59.050;17.416;2023-05-27T01:00:07;101952.25;;;3.64;100.00
12666;BME280;58531;59.050;17.416;2023-05-27T01:02:37;101956.69;;;3.57;100.00
12666;BME280;58531;59.050;17.416;2023-05-27T01:05:08;101950.47;;;3.46;100.00
12666;BME280;58531;59.050;17.416;2023-05-27T01:07:44;101954.09;;;3.38;100.00
12666;BME280;58531;59.050;17.416;2023-05-27T01:10:21;101941.56;;;3.32;100.00
12666;BME280;58531;59.050;17.416;2023-05-27T01:12:57;101956.59;;;3.28;100.00
12666;BME280;58531;59.050;17.416;2023-05-27T01:15:25;101946.69;;;3.21;100.00
12666;BME280;58531;59.050;17.416;2023-05-27T01:17:55;101944.34;;;3.16;100.00
12666;BME280;58531;59.050;17.416;2023-05-27T01:20:24;101934.47;;;3.13;100.00
12666;BME280;58531;59.050;17.416;2023-05-27T01:22:53;101936.72;;;3.11;100.00
12666;BME280;58531;59.050;17.416;2023-05-27T01:25:23;101933.53;;;3.02;100.00
12666;BME280;58531;59.050;17.416;2023-05-27T01:27:50;101933.53;;;3.02;100.00
12666;BME280;58531;59.050;17.416;2023-05-27T01:30:18;101931.72;;;3.06;100.00
12666;BME280;58531;59.050;17.416;2023-05-27T01:32:49;101929.91;;;3.10;100.00
12666;BME280;58531;59.050;17.416;2023-05-27T01:35:23;101926.16;;;3.11;100.00
12666;BME280;58531;59.050;17.416;2023-05-27T01:37:54;101930.59;;;3.07;100.00
12666;BME280;58531;59.050;17.416;2023-05-27T01:40:22;101932.84;;;3.05;100.00
12666;BME280;58531;59.050;17.416;2023-05-27T01:42:49;101932.84;;;3.05;100.00
12666;BME280;58531;59.050;17.416;2023-05-27T01:45:16;101934.34;;;3.06;100.00
12666;BME280;58531;59.050;17.416;2023-05-27T01:47:43;101935.47;;;3.05;100.00
12666;BME280;58531;59.050;17.416;2023-05-27T01:50:10;101942.63;;;3.05;100.00
12666;BME280;58531;59.050;17.416;2023-05-27T01:52:37;101939.63;;;3.06;100.00
12666;BME280;58531;59.050;17.416;2023-05-27T01:55:06;101942.63;;;3.05;100.00
12666;BME280;58531;59.050;17.416;2023-05-27T01:57:33;101936.59;;;3.04;100.00
12666;BME280;58531;59.050;17.416;2023-05-27T02:00:00;101933.13;;;3.00;100.00
12666;BME280;58531;59.050;17.416;2023-05-27T02:02:27;101939.91;;;3.01;100.00
12666;BME280;58531;59.050;17.416;2023-05-27T02:04:54;101936.94;;;3.03;100.00
12666;BME280;58531;59.050;17.416;2023-05-27T02:07:20;101930.47;;;3.00;100.00
12666;BME280;58531;59.050;17.416;2023-05-27T02:09:49;101934.22;;;2.99;100.00
12666;BME280;58531;59.050;17.416;2023-05-27T02:12:17;101935.34;;;2.98;100.00
12666;BME280;58531;59.050;17.416;2023-05-27T02:14:44;101941.75;;;2.97;100.00
12666;BME280;58531;59.050;17.416;2023-05-27T02:17:11;101943.69;;;3.00;100.00
12666;BME280;58531;59.050;17.416;2023-05-27T02:19:40;101947.44;;;2.99;100.00
12666;BME280;58531;59.050;17.416;2023-05-27T02:22:07;101946.69;;;2.99;100.00
12666;BME280;58531;59.050;17.416;2023-05-27T02:24:34;101946.31;;;3.00;100.00
12666;BME280;58531;59.050;17.416;2023-05-27T02:27:01;101944.88;;;3.03;100.00
12666;BME280;58531;59.050;17.416;2023-05-27T02:29:29;101951.31;;;3.05;100.00
12666;BME280;58531;59.050;17.416;2023-05-27T02:31:56;101952.53;;;3.11;100.00
12666;BME280;58531;59.050;17.416;2023-05-27T02:34:23;101945.03;;;3.13;100.00
12666;BME280;58531;59.050;17.416;2023-05-27T02:36:49;101949.91;;;3.11;100.00
12666;BME280;58531;59.050;17.416;2023-05-27T02:39:17;101946.19;;;3.16;100.00
12666;BME280;58531;59.050;17.416;2023-05-27T02:41:43;101955.59;;;3.13;100.00
12666;BME280;58531;59.050;17.416;2023-05-27T02:44:11;101958.94;;;3.10;100.00
12666;BME280;58531;59.050;17.416;2023-05-27T02:46:39;101957.81;;;3.11;100.00
12666;BME280;58531;59.050;17.416;2023-05-27T02:49:06;101949.19;;;3.14;100.00
12666;BME280;58531;59.050;17.416;2023-05-27T02:51:33;101959.06;;;3.17;100.00
12666;BME280;58531;59.050;17.416;2023-05-27T02:54:00;101955.06;;;3.27;100.00
12666;BME280;58531;59.050;17.416;2023-05-27T02:56:27;101962.81;;;3.39;100.00
12666;BME280;58531;59.050;17.416;2023-05-27T02:58:54;101965.19;;;3.47;100.00
12666;BME280;58531;59.050;17.416;2023-05-27T03:01:21;101968.06;;;3.61;100.00
12666;BME280;58531;59.050;17.416;2023-05-27T03:03:49;101971.66;;;3.75;100.00
12666;BME280;58531;59.050;17.416;2023-05-27T03:06:16;101978.31;;;3.92;100.00
12666;BME280;58531;59.050;17.416;2023-05-27T03:08:43;101978.53;;;4.06;100.00
12666;BME280;58531;59.050;17.416;2023-05-27T03:11:10;101979.53;;;4.24;100.00
12666;BME280;58531;59.050;17.416;2023-05-27T03:13:37;101970.72;;;4.46;100.00
12666;BME280;58531;59.050;17.416;2023-05-27T03:16:04;101985.75;;;4.71;100.00
12666;BME280;58531;59.050;17.416;2023-05-27T03:18:31;101982.91;;;4.86;100.00
12666;BME280;58531;59.050;17.416;2023-05-27T03:20:59;101984.56;;;5.01;100.00
12666;BME280;58531;59.050;17.416;2023-05-27T03:23:26;101988.56;;;5.21;100.00
12666;BME280;58531;59.050;17.416;2023-05-27T03:25:53;101989.22;;;5.11;100.00
12666;BME280;58531;59.050;17.416;2023-05-27T03:28:20;101985.50;;;5.19;100.00
12666;BME280;58531;59.050;17.416;2023-05-27T03:30:46;101984.94;;;5.43;100.00
12666;BME280;58531;59.050;17.416;2023-05-27T03:33:14;101980.59;;;5.68;100.00
12666;BME280;58531;59.050;17.416;2023-05-27T03:35:40;101983.00;;;5.83;100.00
12666;BME280;58531;59.050;17.416;2023-05-27T03:38:08;101986.16;;;5.99;100.00
12666;BME280;58531;59.050;17.416;2023-05-27T03:40:35;101978.28;;;6.17;100.00
12666;BME280;58531;59.050;17.416;2023-05-27T03:43:02;101971.94;;;6.32;100.00
12666;BME280;58531;59.050;17.416;2023-05-27T03:45:29;101974.25;;;6.51;100.00
12666;BME280;58531;59.050;17.416;2023-05-27T03:47:56;101975.78;;;6.52;100.00
12666;BME280;58531;59.050;17.416;2023-05-27T03:50:23;101981.88;;;6.59;100.00
12666;BME280;58531;59.050;17.416;2023-05-27T03:52:50;101986.41;;;6.52;100.00
12666;BME280;58531;59.050;17.416;2023-05-27T03:55:18;101983.34;;;6.50;100.00
12666;BME280;58531;59.050;17.416;2023-05-27T03:57:46;101989.50;;;6.68;100.00
12666;BME280;58531;59.050;17.416;2023-05-27T04:00:13;101994.84;;;6.82;100.00
12666;BME280;58531;59.050;17.416;2023-05-27T04:02:42;101997.91;;;6.97;100.00
12666;BME280;58531;59.050;17.416;2023-05-27T04:05:09;101999.84;;;7.04;100.00
12666;BME280;58531;59.050;17.416;2023-05-27T04:07:36;101998.34;;;7.20;100.00
12666;BME280;58531;59.050;17.416;2023-05-27T04:10:03;102007.09;;;7.49;100.00
12666;BME280;58531;59.050;17.416;2023-05-27T04:12:31;102009.31;;;7.92;100.00
12666;BME280;58531;59.050;17.416;2023-05-27T04:14:58;102008.16;;;8.21;100.00
12666;BME280;58531;59.050;17.416;2023-05-27T04:17:25;102003.88;;;8.48;100.00
12666;BME280;58531;59.050;17.416;2023-05-27T04:19:52;102004.44;;;8.90;100.00
12666;BME280;58531;59.050;17.416;2023-05-27T04:22:20;102005.78;;;9.23;100.00
12666;BME280;58531;59.050;17.416;2023-05-27T04:24:47;102012.84;;;9.43;100.00
12666;BME280;58531;59.050;17.416;2023-05-27T04:27:14;102016.88;;;9.61;100.00
12666;BME280;58531;59.050;17.416;2023-05-27T04:29:43;102021.31;;;9.78;100.00
12666;BME280;58531;59.050;17.416;2023-05-27T04:32:10;102013.56;;;9.91;100.00
12666;BME280;58531;59.050;17.416;2023-05-27T04:34:37;102008.09;;;10.08;100.00
12666;BME280;58531;59.050;17.416;2023-05-27T04:37:06;102006.34;;;10.28;99.31
12666;BME280;58531;59.050;17.416;2023-05-27T04:39:35;101993.19;;;10.74;96.05
12666;BME280;58531;59.050;17.416;2023-05-27T04:42:01;101998.66;;;11.20;91.81
12666;BME280;58531;59.050;17.416;2023-05-27T04:44:29;102002.00;;;11.73;86.10
12666;BME280;58531;59.050;17.416;2023-05-27T04:46:57;102003.63;;;11.90;86.03
12666;BME280;58531;59.050;17.416;2023-05-27T04:49:23;102003.34;;;12.62;79.62
12666;BME280;58531;59.050;17.416;2023-05-27T04:51:51;102010.47;;;13.84;77.85
12666;BME280;58531;59.050;17.416;2023-05-27T04:54:18;102006.25;;;15.05;67.56
12666;BME280;58531;59.050;17.416;2023-05-27T04:56:44;102001.00;;;15.73;59.59
12666;BME280;58531;59.050;17.416;2023-05-27T04:59:11;102005.00;;;15.68;62.09
12666;BME280;58531;59.050;17.416;2023-05-27T05:01:42;102010.66;;;15.83;61.75
12666;BME280;58531;59.050;17.416;2023-05-27T05:04:36;101993.44;;;15.80;61.82
12666;BME280;58531;59.050;17.416;2023-05-27T05:07:03;102004.94;;;15.81;61.27
12666;BME280;58531;59.050;17.416;2023-05-27T05:09:30;102007.56;;;16.06;59.07
12666;BME280;58531;59.050;17.416;2023-05-27T05:11:57;101999.34;;;15.54;60.67
12666;BME280;58531;59.050;17.416;2023-05-27T05:14:23;101997.44;;;15.76;59.98
12666;BME280;58531;59.050;17.416;2023-05-27T05:16:50;102004.72;;;15.04;60.48
12666;BME280;58531;59.050;17.416;2023-05-27T05:19:17;101999.41;;;15.97;59.43
12666;BME280;58531;59.050;17.416;2023-05-27T05:21:45;101998.28;;;17.28;50.80
12666;BME280;58531;59.050;17.416;2023-05-27T05:24:12;102001.19;;;18.14;49.09
12666;BME280;58531;59.050;17.416;2023-05-27T05:26:39;102001.53;;;19.78;44.90
12666;BME280;58531;59.050;17.416;2023-05-27T05:29:06;102003.13;;;20.08;41.02
12666;BME280;58531;59.050;17.416;2023-05-27T05:31:32;102005.50;;;20.78;39.35
12666;BME280;58531;59.050;17.416;2023-05-27T05:33:59;102014.75;;;22.82;38.18
12666;BME280;58531;59.050;17.416;2023-05-27T05:36:26;102011.44;;;23.51;33.67
12666;BME280;58531;59.050;17.416;2023-05-27T05:38:54;102013.44;;;23.56;32.42
12666;BME280;58531;59.050;17.416;2023-05-27T05:41:21;102002.59;;;22.21;34.15
12666;BME280;58531;59.050;17.416;2023-05-27T05:43:48;102013.50;;;22.77;33.70
12666;BME280;58531;59.050;17.416;2023-05-27T05:46:14;102014.91;;;22.11;33.11
12666;BME280;58531;59.050;17.416;2023-05-27T05:48:41;102012.66;;;20.61;34.90
12666;BME280;58531;59.050;17.416;2023-05-27T05:51:08;102003.19;;;19.61;36.93
12666;BME280;58531;59.050;17.416;2023-05-27T05:53:35;102013.91;;;18.59;38.04
12666;BME280;58531;59.050;17.416;2023-05-27T05:56:03;102016.66;;;18.23;39.68
12666;BME280;58531;59.050;17.416;2023-05-27T05:58:30;102010.22;;;17.58;39.89
12666;BME280;58531;59.050;17.416;2023-05-27T06:00:57;102005.69;;;16.97;39.00
12666;BME280;58531;59.050;17.416;2023-05-27T06:03:24;102010.66;;;17.08;40.77
12666;BME280;58531;59.050;17.416;2023-05-27T06:05:50;102010.72;;;17.26;42.32
12666;BME280;58531;59.050;17.416;2023-05-27T06:08:17;102014.06;;;17.39;42.10
12666;BME280;58531;59.050;17.416;2023-05-27T06:10:44;102010.97;;;16.70;39.14
12666;BME280;58531;59.050;17.416;2023-05-27T06:13:13;102015.16;;;16.71;40.77
12666;BME280;58531;59.050;17.416;2023-05-27T06:15:39;102019.50;;;16.99;40.06
12666;BME280;58531;59.050;17.416;2023-05-27T06:18:06;102021.81;;;16.79;40.36
12666;BME280;58531;59.050;17.416;2023-05-27T06:20:33;102023.03;;;16.57;42.49
12666;BME280;58531;59.050;17.416;2023-05-27T06:23:00;102019.53;;;16.26;41.79
12666;BME280;58531;59.050;17.416;2023-05-27T06:25:26;102014.97;;;16.36;42.00
12666;BME280;58531;59.050;17.416;2023-05-27T06:27:53;102022.22;;;17.57;40.90
12666;BME280;58531;59.050;17.416;2023-05-27T06:30:22;102024.19;;;17.92;42.12
12666;BME280;58531;59.050;17.416;2023-05-27T06:32:49;102015.16;;;18.13;39.30
12666;BME280;58531;59.050;17.416;2023-05-27T06:35:16;102011.78;;;18.63;38.87
12666;BME280;58531;59.050;17.416;2023-05-27T06:37:43;102018.06;;;18.78;38.09
12666;BME280;58531;59.050;17.416;2023-05-27T06:40:10;102020.88;;;19.24;38.14
12666;BME280;58531;59.050;17.416;2023-05-27T06:42:37;102021.22;;;19.41;37.43
12666;BME280;58531;59.050;17.416;2023-05-27T06:45:05;102013.41;;;19.10;37.22
12666;BME280;58531;59.050;17.416;2023-05-27T06:47:33;102012.91;;;19.68;35.64
12666;BME280;58531;59.050;17.416;2023-05-27T06:50:00;102010.00;;;20.67;35.02
12666;BME280;58531;59.050;17.416;2023-05-27T06:52:27;102012.19;;;21.66;33.55
12666;BME280;58531;59.050;17.416;2023-05-27T06:54:54;102029.28;;;22.68;32.64
12666;BME280;58531;59.050;17.416;2023-05-27T06:57:20;102026.59;;;22.43;31.46
12666;BME280;58531;59.050;17.416;2023-05-27T06:59:47;102026.34;;;21.16;31.94
12666;BME280;58531;59.050;17.416;2023-05-27T07:02:14;102024.09;;;22.19;32.00
12666;BME280;58531;59.050;17.416;2023-05-27T07:04:42;102033.69;;;23.97;28.35
12666;BME280;58531;59.050;17.416;2023-05-27T07:07:09;102026.13;;;22.24;28.98
12666;BME280;58531;59.050;17.416;2023-05-27T07:09:36;102024.75;;;23.91;28.42
12666;BME280;58531;59.050;17.416;2023-05-27T07:12:03;102029.09;;;23.61;28.77
12666;BME280;58531;59.050;17.416;2023-05-27T07:14:31;102025.00;;;25.13;24.63
12666;BME280;58531;59.050;17.416;2023-05-27T07:16:58;102020.53;;;26.24;23.92
12666;BME280;58531;59.050;17.416;2023-05-27T07:19:25;102017.22;;;25.96;22.54
12666;BME280;58531;59.050;17.416;2023-05-27T07:21:53;102020.47;;;25.37;24.27
12666;BME280;58531;59.050;17.416;2023-05-27T07:24:20;102018.91;;;25.53;25.01
12666;BME280;58531;59.050;17.416;2023-05-27T07:26:46;102009.09;;;26.20;23.06
12666;BME280;58531;59.050;17.416;2023-05-27T07:29:13;102002.03;;;26.30;23.63
12666;BME280;58531;59.050;17.416;2023-05-27T07:31:40;101995.69;;;26.99;22.87
12666;BME280;58531;59.050;17.416;2023-05-27T07:34:07;102004.22;;;26.02;23.01
12666;BME280;58531;59.050;17.416;2023-05-27T07:36:34;102001.72;;;24.63;23.44
12666;BME280;58531;59.050;17.416;2023-05-27T07:39:02;101999.16;;;23.83;23.36
12666;BME280;58531;59.050;17.416;2023-05-27T07:41:29;101991.81;;;24.54;24.70
12666;BME280;58531;59.050;17.416;2023-05-27T07:43:56;101999.25;;;23.46;25.90
12666;BME280;58531;59.050;17.416;2023-05-27T07:46:23;101989.88;;;23.53;25.15
12666;BME280;58531;59.050;17.416;2023-05-27T07:48:50;101989.28;;;24.01;23.99
12666;BME280;58531;59.050;17.416;2023-05-27T07:51:17;101972.69;;;24.27;23.11
12666;BME280;58531;59.050;17.416;2023-05-27T07:53:43;101978.84;;;24.82;23.05
12666;BME280;58531;59.050;17.416;2023-05-27T07:56:12;101976.88;;;24.11;25.60
12666;BME280;58531;59.050;17.416;2023-05-27T07:58:38;101976.75;;;25.72;24.27
12666;BME280;58531;59.050;17.416;2023-05-27T08:01:05;101971.06;;;25.03;23.31
12666;BME280;58531;59.050;17.416;2023-05-27T08:03:32;101956.94;;;23.62;27.48
12666;BME280;58531;59.050;17.416;2023-05-27T08:05:59;101957.25;;;23.11;29.16
12666;BME280;58531;59.050;17.416;2023-05-27T08:08:25;101965.16;;;22.11;27.44
12666;BME280;58531;59.050;17.416;2023-05-27T08:10:52;101957.88;;;21.12;30.92
12666;BME280;58531;59.050;17.416;2023-05-27T08:13:20;101948.91;;;20.57;33.60
12666;BME280;58531;59.050;17.416;2023-05-27T08:15:47;101940.03;;;20.42;31.42
12666;BME280;58531;59.050;17.416;2023-05-27T08:18:14;101948.25;;;20.47;32.89
12666;BME280;58531;59.050;17.416;2023-05-27T08:20:41;101944.44;;;20.25;33.91
12666;BME280;58531;59.050;17.416;2023-05-27T08:23:08;101924.34;;;20.31;33.65
12666;BME280;58531;59.050;17.416;2023-05-27T08:25:35;101935.56;;;20.25;33.17
12666;BME280;58531;59.050;17.416;2023-05-27T08:28:01;101932.72;;;20.48;34.55
12666;BME280;58531;59.050;17.416;2023-05-27T08:30:30;101931.31;;;20.52;35.09
12666;BME280;58531;59.050;17.416;2023-05-27T08:32:57;101920.88;;;20.31;32.72
12666;BME280;58531;59.050;17.416;2023-05-27T08:35:24;101920.81;;;20.11;36.14
12666;BME280;58531;59.050;17.416;2023-05-27T08:37:51;101910.75;;;19.88;31.18
12666;BME280;58531;59.050;17.416;2023-05-27T08:40:19;101918.53;;;19.95;34.80
12666;BME280;58531;59.050;17.416;2023-05-27T08:42:46;101915.22;;;19.62;37.11
12666;BME280;58531;59.050;17.416;2023-05-27T08:45:13;101915.38;;;19.44;35.96
12666;BME280;58531;59.050;17.416;2023-05-27T08:47:41;101916.44;;;19.61;36.53
12666;BME280;58531;59.050;17.416;2023-05-27T08:50:09;101914.13;;;19.83;38.10
12666;BME280;58531;59.050;17.416;2023-05-27T08:52:39;101904.75;;;19.55;36.17
12666;BME280;58531;59.050;17.416;2023-05-27T08:55:10;101919.19;;;19.90;37.81
12666;BME280;58531;59.050;17.416;2023-05-27T08:57:39;101914.97;;;19.89;34.93
12666;BME280;58531;59.050;17.416;2023-05-27T09:00:10;101909.53;;;19.89;35.53
12666;BME280;58531;59.050;17.416;2023-05-27T09:02:40;101898.69;;;19.89;35.25
12666;BME280;58531;59.050;17.416;2023-05-27T09:05:08;101905.97;;;19.54;36.01
12666;BME280;58531;59.050;17.416;2023-05-27T09:07:35;101907.47;;;19.84;37.69
12666;BME280;58531;59.050;17.416;2023-05-27T09:10:04;101904.69;;;20.08;32.86
12666;BME280;58531;59.050;17.416;2023-05-27T09:12:31;101899.44;;;19.75;34.69
12666;BME280;58531;59.050;17.416;2023-05-27T09:14:58;101901.63;;;20.00;35.87
12666;BME280;58531;59.050;17.416;2023-05-27T09:17:25;101900.69;;;20.03;38.16
12666;BME280;58531;59.050;17.416;2023-05-27T09:19:54;101896.84;;;19.95;34.32
12666;BME280;58531;59.050;17.416;2023-05-27T09:22:21;101894.63;;;20.08;35.71
12666;BME280;58531;59.050;17.416;2023-05-27T09:24:49;101896.25;;;20.20;34.72
12666;BME280;58531;59.050;17.416;2023-05-27T09:27:16;101888.16;;;20.06;36.08
12666;BME280;58531;59.050;17.416;2023-05-27T09:29:43;101885.03;;;19.98;36.06
12666;BME280;58531;59.050;17.416;2023-05-27T09:32:10;101883.91;;;20.19;33.62
12666;BME280;58531;59.050;17.416;2023-05-27T09:34:40;101889.56;;;20.01;35.49
12666;BME280;58531;59.050;17.416;2023-05-27T09:37:13;101890.44;;;20.41;36.03
12666;BME280;58531;59.050;17.416;2023-05-27T09:39:40;101882.63;;;20.15;33.15
12666;BME280;58531;59.050;17.416;2023-05-27T09:42:07;101875.50;;;19.88;33.26
12666;BME280;58531;59.050;17.416;2023-05-27T09:44:35;101879.16;;;20.14;31.27
12666;BME280;58531;59.050;17.416;2023-05-27T09:47:07;101875.41;;;19.97;34.35
12666;BME280;58531;59.050;17.416;2023-05-27T09:49:37;101878.50;;;20.33;35.91
12666;BME280;58531;59.050;17.416;2023-05-27T09:52:05;101872.50;;;20.15;35.37
12666;BME280;58531;59.050;17.416;2023-05-27T09:54:34;101867.03;;;20.44;33.38
12666;BME280;58531;59.050;17.416;2023-05-27T09:57:03;101862.00;;;20.71;32.51
12666;BME280;58531;59.050;17.416;2023-05-27T09:59:32;101860.66;;;20.47;31.17
12666;BME280;58531;59.050;17.416;2023-05-27T10:02:00;101856.47;;;20.46;30.94
12666;BME280;58531;59.050;17.416;2023-05-27T10:04:28;101849.31;;;20.14;31.43
12666;BME280;58531;59.050;17.416;2023-05-27T10:06:56;101856.78;;;20.19;30.22
12666;BME280;58531;59.050;17.416;2023-05-27T10:09:23;101846.72;;;20.74;29.85
12666;BME280;58531;59.050;17.416;2023-05-27T10:11:53;101855.44;;;20.98;32.77
12666;BME280;58531;59.050;17.416;2023-05-27T10:14:21;101844.91;;;21.05;29.68
12666;BME280;58531;59.050;17.416;2023-05-27T10:16:51;101844.72;;;21.09;28.77
12666;BME280;58531;59.050;17.416;2023-05-27T10:19:19;101850.63;;;20.73;29.13
12666;BME280;58531;59.050;17.416;2023-05-27T10:21:46;101844.66;;;20.15;28.72
12666;BME280;58531;59.050;17.416;2023-05-27T10:24:12;101835.63;;;20.23;28.01
12666;BME280;58531;59.050;17.416;2023-05-27T10:26:40;101831.16;;;20.54;30.23
12666;BME280;58531;59.050;17.416;2023-05-27T10:29:11;101837.53;;;20.17;37.73
12666;BME280;58531;59.050;17.416;2023-05-27T10:31:44;101838.06;;;20.21;40.31
12666;BME280;58531;59.050;17.416;2023-05-27T10:34:11;101832.09;;;20.17;40.82
12666;BME280;58531;59.050;17.416;2023-05-27T10:36:38;101837.34;;;20.21;37.20
12666;BME280;58531;59.050;17.416;2023-05-27T10:39:06;101826.16;;;20.33;33.54
12666;BME280;58531;59.050;17.416;2023-05-27T10:41:39;101832.66;;;20.21;35.70
12666;BME280;58531;59.050;17.416;2023-05-27T10:44:07;101827.13;;;20.30;40.14
12666;BME280;58531;59.050;17.416;2023-05-27T10:46:42;101829.38;;;20.31;36.64
12666;BME280;58531;59.050;17.416;2023-05-27T10:49:10;101825.38;;;20.67;34.41
12666;BME280;58531;59.050;17.416;2023-05-27T10:51:38;101818.91;;;20.99;32.51
12666;BME280;58531;59.050;17.416;2023-05-27T10:54:05;101814.13;;;20.74;31.35
12666;BME280;58531;59.050;17.416;2023-05-27T10:56:33;101812.09;;;20.69;37.76
12666;BME280;58531;59.050;17.416;2023-05-27T10:59:00;101815.06;;;20.71;38.10
12666;BME280;58531;59.050;17.416;2023-05-27T11:01:29;101816.56;;;20.52;40.79
12666;BME280;58531;59.050;17.416;2023-05-27T11:03:59;101803.72;;;19.69;33.31
12666;BME280;58531;59.050;17.416;2023-05-27T11:06:26;101806.50;;;19.31;41.50
12666;BME280;58531;59.050;17.416;2023-05-27T11:08:53;101798.81;;;19.15;44.12
12666;BME280;58531;59.050;17.416;2023-05-27T11:11:20;101801.16;;;19.22;45.15
12666;BME280;58531;59.050;17.416;2023-05-27T11:13:46;101794.06;;;19.68;44.23
12666;BME280;58531;59.050;17.416;2023-05-27T11:16:14;101786.69;;;20.12;41.84
12666;BME280;58531;59.050;17.416;2023-05-27T11:18:42;101786.50;;;20.01;40.44
12666;BME280;58531;59.050;17.416;2023-05-27T11:21:12;101788.94;;;19.70;39.45
12666;BME280;58531;59.050;17.416;2023-05-27T11:23:43;101774.75;;;19.46;40.91
12666;BME280;58531;59.050;17.416;2023-05-27T11:26:14;101776.78;;;19.80;41.50
12666;BME280;58531;59.050;17.416;2023-05-27T11:28:48;101773.88;;;20.32;40.44
12666;BME280;58531;59.050;17.416;2023-05-27T11:31:16;101768.53;;;20.04;39.25
12666;BME280;58531;59.050;17.416;2023-05-27T11:33:44;101764.66;;;19.61;40.31
12666;BME280;58531;59.050;17.416;2023-05-27T11:36:13;101765.03;;;19.69;42.39
12666;BME280;58531;59.050;17.416;2023-05-27T11:38:48;101755.13;;;19.66;41.58
12666;BME280;58531;59.050;17.416;2023-05-27T11:41:15;101754.88;;;19.98;40.51
12666;BME280;58531;59.050;17.416;2023-05-27T11:43:50;101760.34;;;20.18;40.83
12666;BME280;58531;59.050;17.416;2023-05-27T11:46:17;101752.38;;;20.49;38.45
12666;BME280;58531;59.050;17.416;2023-05-27T11:48:45;101748.81;;;20.03;39.42
12666;BME280;58531;59.050;17.416;2023-05-27T11:51:14;101742.91;;;20.05;42.94
12666;BME280;58531;59.050;17.416;2023-05-27T11:53:40;101744.34;;;20.20;40.78
12666;BME280;58531;59.050;17.416;2023-05-27T11:56:08;101748.88;;;20.09;41.59
12666;BME280;58531;59.050;17.416;2023-05-27T11:58:35;101745.91;;;19.92;40.78
12666;BME280;58531;59.050;17.416;2023-05-27T12:01:02;101742.97;;;19.61;42.09
12666;BME280;58531;59.050;17.416;2023-05-27T12:03:30;101730.59;;;19.89;42.83
12666;BME280;58531;59.050;17.416;2023-05-27T12:05:57;101728.63;;;20.24;42.40
12666;BME280;58531;59.050;17.416;2023-05-27T12:08:25;101736.75;;;20.04;39.41
12666;BME280;58531;59.050;17.416;2023-05-27T12:10:52;101729.44;;;20.10;43.82
12666;BME280;58531;59.050;17.416;2023-05-27T12:13:20;101733.69;;;20.17;40.59
12666;BME280;58531;59.050;17.416;2023-05-27T12:15:47;101738.06;;;19.94;41.87
12666;BME280;58531;59.050;17.416;2023-05-27T12:18:14;101727.03;;;19.83;42.90
12666;BME280;58531;59.050;17.416;2023-05-27T12:20:41;101730.00;;;19.36;41.07
12666;BME280;58531;59.050;17.416;2023-05-27T12:23:08;101723.50;;;19.05;40.96
12666;BME280;58531;59.050;17.416;2023-05-27T12:25:36;101721.03;;;19.30;42.34
12666;BME280;58531;59.050;17.416;2023-05-27T12:28:06;101720.63;;;19.66;44.29
12666;BME280;58531;59.050;17.416;2023-05-27T12:30:33;101708.69;;;20.07;42.79
12666;BME280;58531;59.050;17.416;2023-05-27T12:33:01;101710.28;;;20.19;40.15
12666;BME280;58531;59.050;17.416;2023-05-27T12:35:27;101702.88;;;20.00;39.62
12666;BME280;58531;59.050;17.416;2023-05-27T12:37:54;101695.69;;;19.62;38.88
12666;BME280;58531;59.050;17.416;2023-05-27T12:40:21;101700.53;;;19.73;39.58
12666;BME280;58531;59.050;17.416;2023-05-27T12:42:49;101703.66;;;19.51;41.17